createdAt,value
2022-08-25T00:01:09.528Z,4.47
2022-08-25T00:03:39.608Z,5.60
2022-08-25T00:06:09.838Z,5.25
2022-08-25T00:08:38.085Z,6.50
2022-08-25T00:11:06.178Z,3.95
2022-08-25T00:13:34.986Z,4.43
2022-08-25T00:16:02.568Z,6.25
2022-08-25T00:18:30.060Z,7.10
2022-08-25T00:20:57.823Z,5.15
2022-08-25T00:23:25.448Z,4.32
2022-08-25T00:25:52.889Z,7.40
2022-08-25T00:28:20.336Z,4.75
2022-08-25T00:30:49.586Z,9.00
2022-08-25T00:33:17.550Z,8.13
2022-08-25T00:35:45.315Z,6.03
2022-08-25T00:38:13.316Z,4.50
2022-08-25T00:40:41.540Z,4.30
2022-08-25T00:43:09.180Z,4.43
2022-08-25T00:45:37.294Z,8.52
2022-08-25T00:48:06.491Z,6.75
2022-08-25T00:50:35.754Z,4.40
2022-08-25T00:53:05.578Z,4.53
2022-08-25T00:55:35.427Z,5.38
2022-08-25T00:58:05.142Z,4.50
2022-08-25T01:00:34.068Z,6.53
2022-08-25T01:03:01.714Z,6.13
2022-08-25T01:05:31.047Z,4.88
2022-08-25T01:07:59.317Z,4.38
2022-08-25T01:10:28.667Z,4.38
2022-08-25T01:12:59.376Z,7.45
2022-08-25T01:15:28.086Z,4.90
2022-08-25T01:17:57.187Z,5.68
2022-08-25T01:20:29.325Z,4.90
2022-08-25T01:22:59.393Z,4.45
2022-08-25T01:25:34.825Z,8.50
2022-08-25T01:28:02.753Z,8.00
2022-08-25T01:30:30.651Z,9.02
2022-08-25T01:32:58.207Z,5.68
2022-08-25T01:35:25.685Z,5.18
2022-08-25T01:37:53.217Z,10.48
2022-08-25T01:40:22.987Z,6.63
2022-08-25T01:42:55.117Z,5.53
2022-08-25T01:45:22.752Z,8.15
2022-08-25T01:47:50.244Z,7.78
2022-08-25T01:50:17.805Z,5.20
2022-08-25T01:52:52.566Z,5.90
2022-08-25T01:55:20.087Z,5.20
2022-08-25T01:57:49.255Z,6.68
2022-08-25T02:00:17.210Z,3.88
2022-08-25T02:02:44.716Z,7.50
2022-08-25T02:05:14.009Z,4.95
2022-08-25T02:07:42.268Z,4.63
2022-08-25T02:10:10.923Z,5.30
2022-08-25T02:12:38.367Z,5.68
2022-08-25T02:15:08.565Z,6.13
2022-08-25T02:17:36.779Z,4.00
2022-08-25T02:20:05.000Z,5.72
2022-08-25T02:22:32.446Z,4.28
2022-08-25T02:25:00.155Z,5.68
2022-08-25T02:27:28.294Z,6.70
2022-08-25T02:29:55.813Z,4.65
2022-08-25T02:32:24.664Z,6.80
2022-08-25T02:34:52.143Z,3.50
2022-08-25T02:37:20.509Z,4.70
2022-08-25T02:39:48.060Z,4.50
2022-08-25T02:42:15.588Z,8.60
2022-08-25T02:44:43.050Z,4.40
2022-08-25T02:47:10.531Z,5.05
2022-08-25T02:49:39.327Z,5.85
2022-08-25T02:52:06.949Z,10.82
2022-08-25T02:54:34.599Z,6.68
2022-08-25T02:57:02.106Z,4.72
2022-08-25T02:59:29.674Z,4.97
2022-08-25T03:01:57.217Z,7.53
2022-08-25T03:04:24.746Z,5.32
2022-08-25T03:06:53.642Z,3.50
2022-08-25T03:09:21.116Z,4.93
2022-08-25T03:11:48.552Z,6.00
2022-08-25T03:14:16.369Z,5.05
2022-08-25T03:16:46.367Z,4.50
2022-08-25T03:19:14.070Z,5.43
2022-08-25T03:21:41.522Z,4.07
2022-08-25T03:24:10.360Z,6.65
2022-08-25T03:26:55.846Z,4.65
2022-08-25T03:29:24.731Z,5.60
2022-08-25T03:31:52.318Z,3.78
2022-08-25T03:34:20.587Z,6.45
2022-08-25T03:36:50.867Z,7.22
2022-08-25T03:39:20.604Z,4.85
2022-08-25T03:41:48.160Z,5.22
2022-08-25T03:44:16.715Z,4.72
2022-08-25T03:46:45.111Z,4.82
2022-08-25T03:49:13.350Z,5.05
2022-08-25T03:51:42.023Z,4.00
2022-08-25T03:54:10.315Z,4.55
2022-08-25T03:56:39.183Z,6.28
2022-08-25T03:59:09.075Z,4.18
2022-08-25T04:01:36.925Z,3.78
2022-08-25T04:04:05.208Z,5.85
2022-08-25T04:06:32.798Z,4.78
2022-08-25T04:09:00.235Z,4.20
2022-08-25T04:11:28.409Z,5.85
2022-08-25T04:13:59.018Z,4.47
2022-08-25T04:16:29.645Z,5.13
2022-08-25T04:18:57.832Z,7.00
2022-08-25T04:21:25.760Z,6.18
2022-08-25T04:23:53.810Z,4.63
2022-08-25T04:26:23.025Z,7.75
2022-08-25T04:28:50.770Z,5.72
2022-08-25T04:31:21.651Z,6.40
2022-08-25T04:36:17.461Z,4.28
2022-08-25T04:38:45.981Z,4.07
2022-08-25T04:41:14.957Z,4.22
2022-08-25T04:43:43.521Z,5.15
2022-08-25T04:46:12.480Z,7.15
2022-08-25T04:48:42.116Z,6.53
2022-08-25T04:51:10.845Z,5.68
2022-08-25T04:53:38.577Z,7.38
2022-08-25T04:56:07.022Z,5.03
2022-08-25T04:58:34.654Z,4.03
2022-08-25T05:01:05.862Z,3.50
2022-08-25T05:03:33.472Z,4.78
2022-08-25T05:06:02.318Z,6.05
2022-08-25T05:08:29.862Z,5.75
2022-08-25T05:10:57.337Z,5.07
2022-08-25T05:13:25.571Z,5.80
2022-08-25T05:15:53.975Z,3.85
2022-08-25T05:18:22.936Z,5.60
2022-08-25T05:20:50.476Z,5.72
2022-08-25T05:23:19.321Z,6.75
2022-08-25T05:25:46.955Z,5.82
2022-08-25T05:28:14.921Z,6.18
2022-08-25T05:30:43.430Z,4.85
2022-08-25T05:33:11.974Z,6.47
2022-08-25T05:35:39.808Z,5.10
2022-08-25T05:38:07.257Z,7.45
2022-08-25T05:40:44.009Z,3.97
2022-08-25T05:43:12.343Z,4.22
2022-08-25T05:45:40.578Z,4.07
2022-08-25T05:48:08.709Z,6.13
2022-08-25T05:50:36.159Z,5.22
2022-08-25T05:53:03.705Z,4.38
2022-08-25T05:55:31.174Z,7.40
2022-08-25T05:58:00.712Z,3.72
2022-08-25T06:00:28.274Z,4.50
2022-08-25T06:02:54.827Z,6.70
2022-08-25T06:05:23.077Z,4.35
2022-08-25T06:07:51.990Z,6.47
2022-08-25T06:10:20.100Z,7.00
2022-08-25T06:12:47.883Z,4.93
2022-08-25T06:15:18.473Z,6.70
2022-08-25T06:17:46.233Z,9.15
2022-08-25T06:20:14.631Z,6.32
2022-08-25T06:22:42.245Z,4.07
2022-08-25T06:25:11.353Z,5.15
2022-08-25T06:27:39.279Z,4.70
2022-08-25T06:30:07.917Z,6.40
2022-08-25T06:32:38.162Z,4.18
2022-08-25T06:35:06.136Z,6.37
2022-08-25T06:37:33.680Z,5.82
2022-08-25T06:40:01.218Z,7.78
2022-08-25T06:42:28.831Z,4.82
2022-08-25T06:44:56.370Z,8.77
2022-08-25T06:47:23.985Z,5.75
2022-08-25T06:49:52.910Z,4.85
2022-08-25T06:52:20.666Z,5.47
2022-08-25T06:54:49.160Z,8.00
2022-08-25T06:57:16.860Z,9.50
2022-08-25T06:59:44.342Z,7.22
2022-08-25T07:02:11.899Z,8.20
2022-08-25T07:04:39.521Z,6.82
2022-08-25T07:07:08.368Z,7.97
2022-08-25T07:09:39.029Z,7.65
2022-08-25T07:14:35.018Z,10.60
2022-08-25T07:17:10.505Z,5.40
2022-08-25T07:19:41.056Z,5.65
2022-08-25T07:22:09.967Z,6.97
2022-08-25T07:24:37.455Z,7.85
2022-08-25T07:27:05.251Z,5.07
2022-08-25T07:29:33.911Z,6.70
2022-08-25T07:32:01.941Z,6.72
2022-08-25T07:34:52.177Z,7.57
2022-08-25T07:40:10.728Z,5.57
2022-08-25T07:42:38.265Z,6.53
2022-08-25T07:45:07.334Z,8.38
2022-08-25T07:47:34.972Z,7.07
2022-08-25T07:50:02.613Z,8.30
2022-08-25T07:55:02.478Z,3.67
2022-08-25T07:57:29.912Z,3.45
2022-08-25T07:59:58.597Z,6.68
2022-08-25T08:02:26.095Z,5.10
2022-08-25T08:04:54.601Z,4.85
2022-08-25T08:07:23.206Z,7.22
2022-08-25T08:10:04.732Z,6.88
2022-08-25T08:12:39.752Z,4.55
2022-08-25T08:15:10.432Z,6.88
2022-08-25T08:17:38.248Z,4.93
2022-08-25T08:20:08.727Z,4.93
2022-08-25T08:22:36.243Z,5.90
2022-08-25T08:25:03.877Z,6.60
2022-08-25T08:27:36.012Z,6.63
2022-08-25T08:30:05.243Z,4.00
2022-08-25T08:32:53.216Z,6.95
2022-08-25T08:35:20.138Z,9.80
2022-08-25T08:37:47.606Z,8.00
2022-08-25T08:40:20.589Z,9.20
2022-08-25T08:42:53.210Z,7.40
2022-08-25T08:45:28.704Z,8.15
2022-08-25T08:48:16.509Z,12.27
2022-08-25T08:50:47.877Z,4.90
2022-08-25T08:53:19.571Z,6.78
2022-08-25T08:55:52.671Z,4.60
2022-08-25T08:58:26.403Z,5.60
2022-08-25T09:00:56.273Z,14.02
2022-08-25T09:03:28.661Z,3.50
2022-08-25T09:05:58.162Z,7.35
2022-08-25T09:08:26.543Z,3.55
2022-08-25T09:10:58.493Z,3.47
2022-08-25T09:13:32.513Z,5.25
2022-08-25T09:16:34.177Z,9.15
2022-08-25T09:19:08.373Z,6.97
2022-08-25T09:21:39.551Z,18.23
2022-08-25T09:24:14.158Z,13.48
2022-08-25T09:26:46.309Z,5.07
2022-08-25T09:29:16.687Z,16.73
2022-08-25T09:31:46.244Z,15.68
2022-08-25T09:34:14.763Z,4.35
2022-08-25T09:36:42.681Z,11.43
2022-08-25T09:39:10.303Z,12.73
2022-08-25T09:41:45.656Z,10.15
2022-08-25T09:44:21.216Z,5.53
2022-08-25T09:47:02.100Z,14.65
2022-08-25T09:49:37.827Z,9.55
2022-08-25T09:52:20.894Z,6.47
2022-08-25T09:54:50.099Z,5.75
2022-08-25T09:57:32.427Z,6.30
2022-08-25T10:00:10.706Z,8.18
2022-08-25T10:02:39.565Z,7.30
2022-08-25T10:05:19.669Z,7.80
2022-08-25T10:07:53.129Z,4.80
2022-08-25T10:10:24.463Z,4.40
2022-08-25T10:12:52.319Z,6.65
2022-08-25T10:15:29.724Z,6.28
2022-08-25T10:18:16.972Z,3.78
2022-08-25T10:20:45.124Z,3.20
2022-08-25T10:23:13.961Z,4.53
2022-08-25T10:25:43.700Z,3.72
2022-08-25T10:28:29.338Z,2.75
2022-08-25T10:33:29.319Z,7.40
2022-08-25T10:35:58.758Z,2.35
2022-08-25T10:38:36.212Z,6.53
2022-08-25T10:41:09.952Z,13.00
2022-08-25T10:43:41.005Z,3.95
2022-08-25T10:46:13.631Z,7.78
2022-08-25T10:48:49.737Z,14.73
2022-08-25T10:51:35.510Z,6.20
2022-08-25T10:54:07.037Z,5.65
2022-08-25T10:56:36.977Z,3.55
2022-08-25T10:59:17.673Z,6.28
2022-08-25T11:01:53.724Z,11.10
2022-08-25T11:04:26.047Z,6.88
2022-08-25T11:06:57.424Z,5.07
2022-08-25T11:11:55.460Z,2.17
2022-08-25T11:14:26.488Z,2.58
2022-08-25T11:16:59.484Z,6.68
2022-08-25T11:19:32.746Z,2.10
2022-08-25T11:22:04.540Z,4.15
2022-08-25T11:24:41.856Z,5.13
2022-08-25T11:27:13.849Z,2.75
2022-08-25T11:29:43.423Z,4.43
2022-08-25T11:32:11.434Z,3.30
2022-08-25T11:34:43.723Z,6.68
2022-08-25T11:37:15.576Z,4.45
2022-08-25T11:40:00.290Z,3.10
2022-08-25T11:42:34.973Z,2.65
2022-08-25T11:45:07.633Z,4.70
2022-08-25T11:47:48.519Z,3.38
2022-08-25T11:50:30.232Z,2.63
2022-08-25T11:52:58.957Z,2.83
2022-08-25T11:58:11.812Z,12.40
2022-08-25T12:00:41.347Z,20.30
2022-08-25T12:03:27.654Z,32.25
2022-08-25T12:09:06.936Z,4.28
2022-08-25T12:11:45.305Z,7.40
2022-08-25T12:14:17.172Z,3.55
2022-08-25T12:16:46.001Z,2.95
2022-08-25T12:19:31.780Z,12.77
2022-08-25T12:22:19.501Z,3.70
2022-08-25T12:24:50.263Z,3.13
2022-08-25T12:27:26.771Z,4.40
2022-08-25T12:29:55.765Z,2.38
2022-08-25T12:32:36.824Z,2.25
2022-08-25T12:35:18.461Z,2.97
2022-08-25T12:37:56.966Z,2.80
2022-08-25T12:40:27.448Z,3.08
2022-08-25T12:43:03.903Z,3.25
2022-08-25T12:45:34.591Z,6.80
2022-08-25T12:48:20.838Z,3.33
2022-08-25T12:50:57.631Z,2.65
2022-08-25T12:53:29.427Z,9.00
2022-08-25T12:55:58.581Z,4.05
2022-08-25T12:58:58.352Z,11.65
2022-08-25T13:01:35.899Z,2.58
2022-08-25T13:04:22.858Z,5.40
2022-08-25T13:07:00.638Z,14.13
2022-08-25T13:10:01.758Z,4.05
2022-08-25T13:12:32.811Z,2.50
2022-08-25T13:15:02.008Z,6.93
2022-08-25T13:17:30.644Z,4.43
2022-08-25T13:20:15.206Z,13.05
2022-08-25T13:22:45.651Z,5.93
2022-08-25T13:25:15.924Z,12.50
2022-08-25T13:27:48.860Z,16.30
2022-08-25T13:30:24.403Z,6.57
2022-08-25T13:32:51.821Z,26.17
2022-08-25T13:35:20.803Z,4.32
2022-08-25T13:37:47.583Z,2.15
2022-08-25T13:40:17.613Z,66.38
2022-08-25T13:42:53.000Z,2.85
2022-08-25T13:45:25.706Z,2.50
2022-08-25T13:47:55.877Z,1.95
2022-08-25T13:50:31.533Z,2.70
2022-08-25T13:53:00.054Z,2.63
2022-08-25T13:55:29.594Z,2.85
2022-08-25T13:57:59.745Z,4.05
2022-08-25T14:00:32.473Z,2.90
2022-08-25T14:03:00.842Z,2.45
2022-08-25T14:05:36.056Z,2.38
2022-08-25T14:08:16.028Z,2.22
2022-08-25T14:10:50.773Z,3.17
2022-08-25T14:13:32.979Z,2.83
2022-08-25T14:16:09.624Z,3.03
2022-08-25T14:18:37.236Z,1.75
2022-08-25T14:21:09.711Z,2.30
2022-08-25T14:23:38.240Z,3.58
2022-08-25T14:26:06.304Z,2.58
2022-08-25T14:28:34.082Z,2.65
2022-08-25T14:31:02.903Z,6.05
2022-08-25T14:33:35.444Z,4.07
2022-08-25T14:36:04.811Z,2.63
2022-08-25T14:41:00.996Z,5.25
2022-08-25T14:43:31.975Z,3.47
2022-08-25T14:46:00.376Z,3.25
2022-08-25T14:48:32.406Z,2.28
2022-08-25T14:53:28.908Z,5.35
2022-08-25T14:55:59.056Z,2.33
2022-08-25T14:58:27.235Z,2.85
2022-08-25T15:00:55.257Z,2.22
2022-08-25T15:03:29.375Z,2.20
2022-08-25T15:05:56.963Z,2.60
2022-08-25T15:08:41.872Z,2.97
2022-08-25T15:11:10.681Z,3.83
2022-08-25T15:13:38.237Z,2.40
2022-08-25T15:16:09.527Z,4.57
2022-08-25T15:18:37.543Z,2.45
2022-08-25T15:21:05.061Z,2.72
2022-08-25T15:23:32.558Z,3.45
2022-08-25T15:26:02.891Z,3.42
2022-08-25T15:31:01.579Z,2.50
2022-08-25T15:33:29.102Z,3.05
2022-08-25T15:35:56.651Z,2.60
2022-08-25T15:38:24.156Z,3.00
2022-08-25T15:40:51.754Z,2.92
2022-08-25T15:43:19.219Z,2.72
2022-08-25T15:45:46.831Z,3.17
2022-08-25T15:48:15.696Z,3.53
2022-08-25T15:50:43.183Z,3.55
2022-08-25T15:53:10.991Z,4.30
2022-08-25T15:55:39.387Z,4.57
2022-08-25T15:58:07.028Z,4.38
2022-08-25T16:00:36.533Z,2.65
2022-08-25T16:03:07.934Z,3.22
2022-08-25T16:05:37.767Z,2.60
2022-08-25T16:08:05.455Z,3.28
2022-08-25T16:10:37.602Z,2.80
2022-08-25T16:13:06.918Z,4.40
2022-08-25T16:15:36.535Z,4.40
2022-08-25T16:18:04.772Z,3.33
2022-08-25T16:20:33.275Z,2.72
2022-08-25T16:23:03.002Z,2.90
2022-08-25T16:25:31.812Z,3.88
2022-08-25T16:27:59.248Z,4.90
2022-08-25T16:30:26.688Z,4.93
2022-08-25T16:32:54.522Z,3.90
2022-08-25T16:35:22.638Z,4.03
2022-08-25T16:37:50.187Z,5.22
2022-08-25T16:40:22.573Z,4.00
2022-08-25T16:42:50.738Z,3.63
2022-08-25T16:45:18.647Z,4.32
2022-08-25T16:47:46.166Z,3.78
2022-08-25T16:50:14.119Z,3.70
2022-08-25T16:52:59.443Z,2.72
2022-08-25T16:55:28.961Z,2.60
2022-08-25T16:58:07.498Z,3.90
2022-08-25T17:00:36.738Z,8.32
2022-08-25T17:03:04.976Z,3.42
2022-08-25T17:05:33.428Z,3.95
2022-08-25T17:08:18.909Z,4.68
2022-08-25T17:10:48.407Z,4.68
2022-08-25T17:13:15.880Z,3.85
2022-08-25T17:15:43.924Z,3.55
2022-08-25T17:18:12.667Z,3.42
2022-08-25T17:20:40.410Z,7.15
2022-08-25T17:23:12.058Z,5.65
2022-08-25T17:25:42.972Z,3.85
2022-08-25T17:30:41.544Z,5.90
2022-08-25T17:33:09.019Z,5.05
2022-08-25T17:35:39.175Z,4.05
2022-08-25T17:40:35.188Z,2.88
2022-08-25T17:43:02.720Z,4.45
2022-08-25T17:45:30.289Z,3.60
2022-08-25T17:47:59.988Z,6.13
2022-08-25T17:50:27.482Z,4.70
2022-08-25T17:52:54.920Z,5.05
2022-08-25T17:55:23.253Z,5.93
2022-08-25T17:57:51.547Z,2.92
2022-08-25T18:00:19.761Z,5.85
2022-08-25T18:02:48.701Z,3.10
2022-08-25T18:05:18.675Z,7.18
2022-08-25T18:07:46.163Z,5.22
2022-08-25T18:10:13.657Z,5.78
2022-08-25T18:12:41.069Z,3.63
2022-08-25T18:15:11.061Z,4.25
2022-08-25T18:17:42.073Z,5.25
2022-08-25T18:20:14.512Z,4.40
2022-08-25T18:22:44.138Z,3.75
2022-08-25T18:25:13.025Z,7.43
2022-08-25T18:27:40.821Z,4.63
2022-08-25T18:30:09.258Z,3.35
2022-08-25T18:32:37.023Z,4.68
2022-08-25T18:35:05.349Z,4.32
2022-08-25T18:37:50.905Z,5.07
2022-08-25T18:40:26.259Z,4.35
2022-08-25T18:42:54.592Z,4.03
2022-08-25T18:45:23.142Z,4.65
2022-08-25T18:47:53.309Z,5.32
2022-08-25T18:50:21.579Z,5.13
2022-08-25T18:52:49.022Z,8.38
2022-08-25T18:55:16.807Z,5.40
2022-08-25T18:57:46.289Z,4.72
2022-08-25T19:00:15.816Z,6.53
2022-08-25T19:02:47.000Z,8.20
2022-08-25T19:05:15.299Z,7.68
2022-08-25T19:07:42.910Z,6.20
2022-08-25T19:10:10.556Z,5.72
2022-08-25T19:12:40.488Z,6.03
2022-08-25T19:15:10.285Z,5.15
2022-08-25T19:17:38.176Z,6.87
2022-08-25T19:20:11.148Z,5.18
2022-08-25T19:22:41.952Z,4.68
2022-08-25T19:25:10.489Z,5.00
2022-08-25T19:27:38.245Z,4.22
2022-08-25T19:30:08.867Z,4.72
2022-08-25T19:35:09.051Z,4.32
2022-08-25T19:37:36.761Z,8.70
2022-08-25T19:40:07.162Z,5.55
2022-08-25T19:42:38.347Z,4.28
2022-08-25T19:45:07.384Z,3.97
2022-08-25T19:47:35.059Z,3.90
2022-08-25T19:50:02.606Z,5.30
2022-08-25T19:52:31.706Z,4.55
2022-08-25T19:55:02.528Z,5.40
2022-08-25T19:57:42.301Z,4.05
2022-08-25T20:02:38.485Z,5.22
2022-08-25T20:05:07.219Z,3.83
2022-08-25T20:07:36.175Z,7.32
2022-08-25T20:10:05.103Z,5.18
2022-08-25T20:12:32.559Z,3.92
2022-08-25T20:15:00.064Z,3.53
2022-08-25T20:17:28.642Z,5.65
2022-08-25T20:19:57.920Z,4.35
2022-08-25T20:22:27.067Z,4.95
2022-08-25T20:24:57.804Z,3.50
2022-08-25T20:27:26.943Z,4.90
2022-08-25T20:29:54.439Z,6.22
2022-08-25T20:32:22.622Z,7.20
2022-08-25T20:34:50.370Z,6.10
2022-08-25T20:37:19.499Z,4.88
2022-08-25T20:39:47.262Z,4.00
2022-08-25T20:42:16.443Z,5.65
2022-08-25T20:44:43.928Z,4.40
2022-08-25T20:47:11.656Z,4.20
2022-08-25T20:50:10.777Z,5.20
2022-08-25T20:53:13.608Z,7.90
2022-08-25T20:55:44.544Z,7.07
2022-08-25T20:58:14.111Z,6.10
2022-08-25T21:00:42.404Z,7.28
2022-08-25T21:03:19.776Z,9.82
2022-08-25T21:06:35.877Z,4.53
2022-08-25T21:09:15.669Z,6.55
2022-08-25T21:18:48.184Z,4.25
2022-08-25T21:21:16.543Z,6.32
2022-08-25T21:23:45.116Z,7.68
2022-08-25T21:26:13.221Z,5.68
2022-08-25T21:28:40.714Z,8.57
2022-08-25T21:31:17.328Z,6.13
2022-08-25T21:33:45.480Z,7.82
2022-08-25T21:36:13.856Z,5.65
2022-08-25T21:38:41.315Z,9.82
2022-08-25T21:41:09.972Z,13.82
2022-08-25T21:43:37.776Z,21.50
2022-08-25T21:46:07.080Z,22.77
2022-08-25T21:48:36.500Z,24.40
2022-08-25T21:51:04.900Z,26.30
2022-08-25T21:53:33.824Z,29.20
2022-08-25T21:56:05.225Z,30.85
2022-08-25T22:01:06.012Z,34.47
2022-08-25T22:03:40.967Z,39.08
2022-08-25T22:06:08.910Z,41.63
2022-08-25T22:08:37.924Z,41.65
2022-08-25T22:11:05.587Z,41.35
2022-08-25T22:13:33.227Z,43.33
2022-08-25T22:16:00.861Z,43.70
2022-08-25T22:18:28.386Z,46.53
2022-08-25T22:20:57.753Z,45.58
2022-08-25T22:23:28.321Z,47.78
2022-08-25T22:25:55.995Z,48.35
2022-08-25T22:28:25.146Z,51.20
2022-08-25T22:30:52.917Z,50.03
2022-08-25T22:33:21.997Z,46.60
2022-08-25T22:35:53.158Z,48.28
2022-08-25T22:38:28.824Z,47.00
2022-08-25T22:41:01.246Z,48.65
2022-08-25T22:43:30.914Z,48.17
2022-08-25T22:46:02.681Z,52.05
2022-08-25T22:48:30.299Z,46.92
2022-08-25T22:51:03.809Z,46.72
2022-08-25T22:53:36.179Z,46.67
2022-08-25T22:56:04.425Z,46.97
2022-08-25T22:58:32.036Z,47.90
2022-08-25T23:00:59.632Z,45.97
2022-08-25T23:03:27.959Z,46.95
2022-08-25T23:05:55.723Z,45.88
2022-08-25T23:08:38.962Z,51.88
2022-08-25T23:11:10.839Z,43.92
2022-08-25T23:13:38.929Z,46.55
2022-08-25T23:16:10.482Z,46.95
2022-08-25T23:18:41.827Z,50.90
2022-08-25T23:21:29.744Z,47.10
2022-08-25T23:24:02.767Z,47.15
2022-08-25T23:26:32.519Z,45.60
2022-08-25T23:28:59.954Z,44.22
2022-08-25T23:31:27.721Z,44.70
2022-08-25T23:33:55.519Z,44.72
2022-08-25T23:36:22.963Z,45.22
2022-08-25T23:38:51.813Z,45.15
2022-08-25T23:41:20.618Z,44.65
2022-08-25T23:43:49.726Z,41.42
2022-08-25T23:46:18.058Z,46.72
2022-08-25T23:48:45.588Z,45.70
2022-08-25T23:51:13.470Z,44.78
2022-08-25T23:53:40.895Z,44.95
2022-08-25T23:56:08.398Z,46.83
2022-08-25T23:58:37.057Z,49.00
